Skip Navigation LinksHome page > Weather > Current weather Skip Navigation Links

Current Weather

Dorval Intl. Apt., Montréal, P.Q.

For information only: do not use for flight planning or navigation.
Latest weather
Observation time Sunday, May 26, 2019 11:00 AM EDT
Local time Sunday, May 26, 2019 11:41 AM EDT
Flight conditions Visual Meteorological Conditions
Winds
Wind direction West (260°)
Wind speed 10 mph
Visibility 15 mi.
Sky condition
Ceiling 25,000 ft. broken clouds
Cloud layer few clouds 1,200 ft.
Cloud layer broken clouds 25,000 ft.
Temperature 68°F
Dewpoint 63°F
Altimeter 29.79 in.Hg
Derived measurements
Relative humidity 83%
Density altitude 1119 ft.
Sea-level pressure 29.80 in.Hg
METAR CYUL 261500Z 26009KT 15SM FEW012TCU BKN250 20/17 A2979 RMK TCU2CI4 SLP090 DENSITY ALT 1000FT

Settings

Location code

InnerDrive.Weather 4.0.6770.0 Release CLR 4.0.30319.42000
Copyright ©2018 Inner Drive Technology. All rights reserved. Portions Copyright ©1986-2018 David Braverman.

Find weather

Site navigation


Skip Navigation Links

Place info

Page info

PayPal - The safer, easier way to pay online!

Return home.

Copyright ©2019 Inner Drive Technology. Purveyors of fine, hand-crafted computer software. Page printed 2019-05-26T15:41:32 UTC.